EGKK/LGW METAR and TAF weather

Enter ICAO airport designator
Station Type Date Time Source
EGKK METAR 2021/09/16 22:20 UTC NOAA

EGKK 162220Z VRB02KT 6000 NSC 15/14 Q1017


Station Type Date Time Source
EGKK Decoded METAR 2021/09/16 22:20 UTC NOAA

London / Gatwick Airport, United Kingdom (EGKK) 51-09N 000-11W 0M
Sep 16, 2021 - 06:20 PM EDT / 2021.09.16 2220 UTC
Wind: Variable at 2 MPH (2 KT):0
Visibility: 3 mile(s):0
Temperature: 59 F (15 C)
Dew Point: 57 F (14 C)
Relative Humidity: 93%
Pressure (altimeter): 30.03 in. Hg (1017 hPa)
ob: EGKK 162220Z VRB02KT 6000 NSC 15/14 Q1017
cycle: 22

Station Type Date Time Source
EGKK TAF 2021/09/16 21:59 UTC NOAA

TAF COR EGKK 162057Z 1621/1724 21004KT 9999 FEW030
TEMPO 1621/1622 8000
BECMG 1622/1701 4000 BR PROB30 1701/1707 0600 FG BKN001
BECMG 1707/1709 9999 NSW
BECMG 1715/1718 15010KT
BECMG 1721/1724 09004KT PROB30
TEMPO 1722/1724 8000

Example: see airport list